sensor_id;sensor_type;location;lat;lon;timestamp;pressure;altitude;pressure_sealevel;temperature;humidity
53758;BME280;39674;59.860;30.672;2023-07-31T00:01:48;100252.13;;;14.34;100.00
53758;BME280;39674;59.860;30.672;2023-07-31T00:04:19;100306.53;;;14.66;100.00
53758;BME280;39674;59.860;30.672;2023-07-31T00:06:49;100257.78;;;14.29;100.00
53758;BME280;39674;59.860;30.672;2023-07-31T00:09:20;100366.78;;;14.89;100.00
53758;BME280;39674;59.860;30.672;2023-07-31T00:11:51;100325.06;;;14.54;100.00
53758;BME280;39674;59.860;30.672;2023-07-31T00:14:31;100273.38;;;14.10;100.00
53758;BME280;39674;59.860;30.672;2023-07-31T00:17:01;100337.19;;;14.45;100.00
53758;BME280;39674;59.860;30.672;2023-07-31T00:19:30;100270.47;;;14.02;100.00
53758;BME280;39674;59.860;30.672;2023-07-31T00:22:08;100380.69;;;14.69;100.00
53758;BME280;39674;59.860;30.672;2023-07-31T00:24:40;100338.50;;;14.40;100.00
53758;BME280;39674;59.860;30.672;2023-07-31T00:27:11;100311.91;;;14.28;100.00
53758;BME280;39674;59.860;30.672;2023-07-31T00:29:43;100375.38;;;14.69;100.00
53758;BME280;39674;59.860;30.672;2023-07-31T00:32:11;100272.59;;;13.96;100.00
53758;BME280;39674;59.860;30.672;2023-07-31T00:34:40;100366.09;;;14.50;100.00
53758;BME280;39674;59.860;30.672;2023-07-31T00:37:09;100334.94;;;14.28;100.00
53758;BME280;39674;59.860;30.672;2023-07-31T00:39:38;100333.06;;;14.17;100.00
53758;BME280;39674;59.860;30.672;2023-07-31T00:42:10;100317.19;;;14.04;100.00
53758;BME280;39674;59.860;30.672;2023-07-31T00:44:39;100275.22;;;13.72;100.00
53758;BME280;39674;59.860;30.672;2023-07-31T00:47:10;100362.56;;;14.25;100.00
53758;BME280;39674;59.860;30.672;2023-07-31T00:49:38;100288.38;;;13.74;100.00
53758;BME280;39674;59.860;30.672;2023-07-31T00:52:08;100301.34;;;13.66;100.00
53758;BME280;39674;59.860;30.672;2023-07-31T00:54:37;100304.00;;;13.66;100.00
53758;BME280;39674;59.860;30.672;2023-07-31T00:57:15;100352.66;;;13.90;100.00
53758;BME280;39674;59.860;30.672;2023-07-31T00:59:44;100393.44;;;14.15;100.00
53758;BME280;39674;59.860;30.672;2023-07-31T01:02:17;100299.88;;;13.61;100.00
53758;BME280;39674;59.860;30.672;2023-07-31T01:04:48;100294.06;;;13.56;100.00
53758;BME280;39674;59.860;30.672;2023-07-31T01:07:22;100295.84;;;13.56;100.00
53758;BME280;39674;59.860;30.672;2023-07-31T01:09:59;100292.34;;;13.55;100.00
53758;BME280;39674;59.860;30.672;2023-07-31T01:12:32;100355.25;;;13.92;100.00
53758;BME280;39674;59.860;30.672;2023-07-31T01:15:05;100324.06;;;13.70;100.00
53758;BME280;39674;59.860;30.672;2023-07-31T01:17:39;100292.56;;;13.52;100.00
53758;BME280;39674;59.860;30.672;2023-07-31T01:20:17;100292.56;;;13.52;100.00
53758;BME280;39674;59.860;30.672;2023-07-31T01:23:17;100325.41;;;13.88;100.00
53758;BME280;39674;59.860;30.672;2023-07-31T01:26:03;100297.72;;;13.67;100.00
53758;BME280;39674;59.860;30.672;2023-07-31T01:28:50;100282.69;;;13.54;100.00
53758;BME280;39674;59.860;30.672;2023-07-31T01:31:26;100341.66;;;13.84;100.00
53758;BME280;39674;59.860;30.672;2023-07-31T01:34:01;100322.25;;;13.70;100.00
53758;BME280;39674;59.860;30.672;2023-07-31T01:36:48;100374.59;;;14.18;100.00
53758;BME280;39674;59.860;30.672;2023-07-31T01:39:20;100327.69;;;13.69;100.00
53758;BME280;39674;59.860;30.672;2023-07-31T01:41:53;100328.63;;;13.68;100.00
53758;BME280;39674;59.860;30.672;2023-07-31T01:44:35;100315.72;;;13.50;100.00
53758;BME280;39674;59.860;30.672;2023-07-31T01:47:06;100272.72;;;13.19;100.00
53758;BME280;39674;59.860;30.672;2023-07-31T01:49:39;100331.47;;;13.64;100.00
53758;BME280;39674;59.860;30.672;2023-07-31T01:52:16;100370.53;;;13.88;100.00
53758;BME280;39674;59.860;30.672;2023-07-31T01:54:46;100342.75;;;13.55;100.00
53758;BME280;39674;59.860;30.672;2023-07-31T01:57:21;100287.34;;;13.12;100.00
53758;BME280;39674;59.860;30.672;2023-07-31T02:00:09;100342.13;;;13.52;100.00
53758;BME280;39674;59.860;30.672;2023-07-31T02:02:40;100346.78;;;13.48;100.00
53758;BME280;39674;59.860;30.672;2023-07-31T02:05:13;100349.97;;;13.53;100.00
53758;BME280;39674;59.860;30.672;2023-07-31T02:08:02;100302.44;;;13.24;100.00
53758;BME280;39674;59.860;30.672;2023-07-31T02:10:32;100380.53;;;13.85;100.00
53758;BME280;39674;59.860;30.672;2023-07-31T02:13:09;100384.75;;;13.87;100.00
53758;BME280;39674;59.860;30.672;2023-07-31T02:15:54;100271.25;;;13.15;100.00
53758;BME280;39674;59.860;30.672;2023-07-31T02:18:25;100337.66;;;13.52;100.00
53758;BME280;39674;59.860;30.672;2023-07-31T02:21:01;100275.50;;;13.05;100.00
53758;BME280;39674;59.860;30.672;2023-07-31T02:23:30;100324.16;;;13.29;100.00
53758;BME280;39674;59.860;30.672;2023-07-31T02:26:06;100274.75;;;13.03;100.00
53758;BME280;39674;59.860;30.672;2023-07-31T02:28:38;100308.03;;;13.32;100.00
53758;BME280;39674;59.860;30.672;2023-07-31T02:31:10;100288.41;;;13.22;100.00
53758;BME280;39674;59.860;30.672;2023-07-31T02:33:42;100313.69;;;13.41;100.00
53758;BME280;39674;59.860;30.672;2023-07-31T02:36:17;100281.22;;;13.24;100.00
53758;BME280;39674;59.860;30.672;2023-07-31T02:38:58;100297.97;;;13.38;100.00
53758;BME280;39674;59.860;30.672;2023-07-31T02:41:44;100369.16;;;13.95;100.00
53758;BME280;39674;59.860;30.672;2023-07-31T02:44:14;100275.59;;;13.42;100.00
53758;BME280;39674;59.860;30.672;2023-07-31T02:46:46;100271.56;;;13.49;100.00
53758;BME280;39674;59.860;30.672;2023-07-31T02:49:16;100266.53;;;13.57;100.00
53758;BME280;39674;59.860;30.672;2023-07-31T02:51:46;100350.25;;;14.24;100.00
53758;BME280;39674;59.860;30.672;2023-07-31T02:54:17;100283.88;;;13.87;100.00
53758;BME280;39674;59.860;30.672;2023-07-31T02:56:52;100359.31;;;14.46;100.00
53758;BME280;39674;59.860;30.672;2023-07-31T02:59:28;100361.28;;;14.55;100.00
53758;BME280;39674;59.860;30.672;2023-07-31T03:02:01;100321.63;;;14.41;100.00
53758;BME280;39674;59.860;30.672;2023-07-31T03:04:31;100260.84;;;14.12;100.00
53758;BME280;39674;59.860;30.672;2023-07-31T03:07:01;100264.19;;;14.27;100.00
53758;BME280;39674;59.860;30.672;2023-07-31T03:09:32;100289.53;;;14.55;100.00
53758;BME280;39674;59.860;30.672;2023-07-31T03:12:03;100312.97;;;14.86;100.00
53758;BME280;39674;59.860;30.672;2023-07-31T03:14:36;100259.13;;;14.59;100.00
53758;BME280;39674;59.860;30.672;2023-07-31T03:17:05;100243.84;;;14.50;100.00
53758;BME280;39674;59.860;30.672;2023-07-31T03:19:40;100291.63;;;14.99;100.00
53758;BME280;39674;59.860;30.672;2023-07-31T03:22:09;100347.31;;;15.47;100.00
53758;BME280;39674;59.860;30.672;2023-07-31T03:24:40;100353.88;;;15.66;100.00
53758;BME280;39674;59.860;30.672;2023-07-31T03:27:11;100256.97;;;15.23;100.00
53758;BME280;39674;59.860;30.672;2023-07-31T03:29:44;100312.47;;;15.73;100.00
53758;BME280;39674;59.860;30.672;2023-07-31T03:32:16;100349.88;;;16.06;100.00
53758;BME280;39674;59.860;30.672;2023-07-31T03:34:45;100259.38;;;15.60;100.00
53758;BME280;39674;59.860;30.672;2023-07-31T03:37:17;100247.00;;;15.70;100.00
53758;BME280;39674;59.860;30.672;2023-07-31T03:39:49;100358.41;;;16.43;100.00
53758;BME280;39674;59.860;30.672;2023-07-31T03:42:18;100313.59;;;16.26;100.00
53758;BME280;39674;59.860;30.672;2023-07-31T03:44:52;100289.88;;;16.23;100.00
53758;BME280;39674;59.860;30.672;2023-07-31T03:47:21;100313.78;;;16.45;100.00
53758;BME280;39674;59.860;30.672;2023-07-31T03:49:51;100331.63;;;16.66;100.00
53758;BME280;39674;59.860;30.672;2023-07-31T03:52:23;100350.84;;;16.81;100.00
53758;BME280;39674;59.860;30.672;2023-07-31T03:54:57;100327.25;;;16.76;100.00
53758;BME280;39674;59.860;30.672;2023-07-31T03:57:28;100317.66;;;16.74;100.00
53758;BME280;39674;59.860;30.672;2023-07-31T03:59:58;100255.28;;;16.44;100.00
53758;BME280;39674;59.860;30.672;2023-07-31T04:02:28;100243.13;;;16.51;100.00
53758;BME280;39674;59.860;30.672;2023-07-31T04:04:58;100295.91;;;16.90;100.00
53758;BME280;39674;59.860;30.672;2023-07-31T04:07:29;100309.25;;;17.11;100.00
53758;BME280;39674;59.860;30.672;2023-07-31T04:10:10;100296.59;;;17.13;100.00
53758;BME280;39674;59.860;30.672;2023-07-31T04:12:44;100340.91;;;17.46;100.00
53758;BME280;39674;59.860;30.672;2023-07-31T04:15:18;100235.72;;;16.97;100.00
53758;BME280;39674;59.860;30.672;2023-07-31T04:17:49;100309.13;;;17.43;100.00
53758;BME280;39674;59.860;30.672;2023-07-31T04:20:27;100331.00;;;17.68;100.00
53758;BME280;39674;59.860;30.672;2023-07-31T04:22:56;100287.50;;;17.46;100.00
53758;BME280;39674;59.860;30.672;2023-07-31T04:25:28;100301.63;;;17.68;100.00
53758;BME280;39674;59.860;30.672;2023-07-31T04:27:57;100254.75;;;17.44;100.00
53758;BME280;39674;59.860;30.672;2023-07-31T04:30:31;100308.47;;;17.92;100.00
53758;BME280;39674;59.860;30.672;2023-07-31T04:32:59;100306.97;;;17.99;100.00
53758;BME280;39674;59.860;30.672;2023-07-31T04:35:28;100256.16;;;17.79;100.00
53758;BME280;39674;59.860;30.672;2023-07-31T04:37:58;100339.38;;;18.45;100.00
53758;BME280;39674;59.860;30.672;2023-07-31T04:40:29;100249.34;;;18.06;100.00
53758;BME280;39674;59.860;30.672;2023-07-31T04:43:00;100305.75;;;18.62;100.00
53758;BME280;39674;59.860;30.672;2023-07-31T04:45:33;100262.41;;;18.49;100.00
53758;BME280;39674;59.860;30.672;2023-07-31T04:48:05;100246.09;;;18.52;100.00
53758;BME280;39674;59.860;30.672;2023-07-31T04:50:44;100296.16;;;18.99;100.00
53758;BME280;39674;59.860;30.672;2023-07-31T04:53:21;100310.78;;;19.24;100.00
53758;BME280;39674;59.860;30.672;2023-07-31T04:55:51;100283.25;;;19.32;100.00
53758;BME280;39674;59.860;30.672;2023-07-31T04:58:23;100227.66;;;19.16;100.00
53758;BME280;39674;59.860;30.672;2023-07-31T05:00:56;100233.22;;;19.32;100.00
53758;BME280;39674;59.860;30.672;2023-07-31T05:03:26;100227.28;;;19.38;97.12
53758;BME280;39674;59.860;30.672;2023-07-31T05:05:57;100314.13;;;20.01;97.07
53758;BME280;39674;59.860;30.672;2023-07-31T05:08:31;100269.84;;;19.97;99.63
53758;BME280;39674;59.860;30.672;2023-07-31T05:11:06;100284.28;;;20.32;96.06
53758;BME280;39674;59.860;30.672;2023-07-31T05:13:36;100272.22;;;20.36;91.88
53758;BME280;39674;59.860;30.672;2023-07-31T05:16:10;100235.38;;;20.39;92.34
53758;BME280;39674;59.860;30.672;2023-07-31T05:18:47;100321.47;;;21.08;87.94
53758;BME280;39674;59.860;30.672;2023-07-31T05:21:17;100317.28;;;21.31;91.88
53758;BME280;39674;59.860;30.672;2023-07-31T05:23:46;100234.09;;;20.87;84.10
53758;BME280;39674;59.860;30.672;2023-07-31T05:26:20;100301.56;;;21.45;90.42
53758;BME280;39674;59.860;30.672;2023-07-31T05:28:52;100275.13;;;21.58;84.65
53758;BME280;39674;59.860;30.672;2023-07-31T05:31:34;100316.97;;;22.20;87.98
53758;BME280;39674;59.860;30.672;2023-07-31T05:34:05;100268.84;;;22.01;83.02
53758;BME280;39674;59.860;30.672;2023-07-31T05:36:44;100234.59;;;22.03;83.83
53758;BME280;39674;59.860;30.672;2023-07-31T05:39:17;100233.25;;;22.15;84.56
53758;BME280;39674;59.860;30.672;2023-07-31T05:41:49;100281.72;;;22.65;84.99
53758;BME280;39674;59.860;30.672;2023-07-31T05:44:24;100284.41;;;22.73;81.82
53758;BME280;39674;59.860;30.672;2023-07-31T05:47:12;100286.44;;;22.87;83.52
53758;BME280;39674;59.860;30.672;2023-07-31T05:49:48;100288.59;;;23.08;83.82
53758;BME280;39674;59.860;30.672;2023-07-31T05:52:28;100320.47;;;23.53;83.61
53758;BME280;39674;59.860;30.672;2023-07-31T05:54:58;100266.97;;;23.42;82.11
53758;BME280;39674;59.860;30.672;2023-07-31T05:57:28;100284.47;;;23.85;80.37
53758;BME280;39674;59.860;30.672;2023-07-31T05:59:58;100225.19;;;23.77;78.49
53758;BME280;39674;59.860;30.672;2023-07-31T06:02:33;100229.97;;;23.98;76.68
53758;BME280;39674;59.860;30.672;2023-07-31T06:05:21;100291.78;;;24.55;75.68
53758;BME280;39674;59.860;30.672;2023-07-31T06:08:02;100218.69;;;23.95;72.08
53758;BME280;39674;59.860;30.672;2023-07-31T06:10:31;100303.25;;;24.57;75.69
53758;BME280;39674;59.860;30.672;2023-07-31T06:13:00;100305.50;;;24.76;74.83
53758;BME280;39674;59.860;30.672;2023-07-31T06:15:28;100301.72;;;24.86;73.49
53758;BME280;39674;59.860;30.672;2023-07-31T06:17:59;100304.56;;;24.61;66.79
53758;BME280;39674;59.860;30.672;2023-07-31T06:20:30;100309.81;;;24.39;71.30
53758;BME280;39674;59.860;30.672;2023-07-31T06:22:59;100309.47;;;24.34;76.16
53758;BME280;39674;59.860;30.672;2023-07-31T06:25:28;100283.88;;;24.07;73.65
53758;BME280;39674;59.860;30.672;2023-07-31T06:27:57;100307.44;;;24.13;75.80
53758;BME280;39674;59.860;30.672;2023-07-31T06:30:25;100319.31;;;24.03;75.70
53758;BME280;39674;59.860;30.672;2023-07-31T06:32:54;100311.03;;;24.05;77.33
53758;BME280;39674;59.860;30.672;2023-07-31T06:35:25;100315.81;;;24.18;77.65
53758;BME280;39674;59.860;30.672;2023-07-31T06:37:54;100301.75;;;24.31;73.97
53758;BME280;39674;59.860;30.672;2023-07-31T06:40:23;100310.09;;;24.44;73.82
53758;BME280;39674;59.860;30.672;2023-07-31T06:45:27;100309.81;;;24.86;63.65
53758;BME280;39674;59.860;30.672;2023-07-31T06:47:58;100310.66;;;25.01;66.74
53758;BME280;39674;59.860;30.672;2023-07-31T06:50:30;100272.38;;;24.97;65.37
53758;BME280;39674;59.860;30.672;2023-07-31T06:52:59;100276.69;;;25.07;66.03
53758;BME280;39674;59.860;30.672;2023-07-31T06:55:29;100273.00;;;24.85;63.06
53758;BME280;39674;59.860;30.672;2023-07-31T06:57:58;100230.88;;;24.37;65.22
53758;BME280;39674;59.860;30.672;2023-07-31T07:00:28;100303.44;;;24.55;63.08
53758;BME280;39674;59.860;30.672;2023-07-31T07:02:59;100305.44;;;24.38;65.57
53758;BME280;39674;59.860;30.672;2023-07-31T07:08:59;100309.00;;;24.07;66.45
53758;BME280;39674;59.860;30.672;2023-07-31T07:11:29;100302.97;;;23.97;65.78
53758;BME280;39674;59.860;30.672;2023-07-31T07:13:58;100260.81;;;23.64;67.13
53758;BME280;39674;59.860;30.672;2023-07-31T07:16:30;100279.63;;;23.72;67.68
53758;BME280;39674;59.860;30.672;2023-07-31T07:19:01;100269.75;;;23.56;69.13
53758;BME280;39674;59.860;30.672;2023-07-31T07:21:43;100274.53;;;23.46;71.43
53758;BME280;39674;59.860;30.672;2023-07-31T07:24:41;100310.88;;;23.59;70.80
53758;BME280;39674;59.860;30.672;2023-07-31T07:27:10;100263.34;;;23.18;71.66
53758;BME280;39674;59.860;30.672;2023-07-31T07:29:45;100307.19;;;23.51;76.08
53758;BME280;39674;59.860;30.672;2023-07-31T07:32:15;100270.88;;;23.31;76.99
53758;BME280;39674;59.860;30.672;2023-07-31T07:34:48;100277.94;;;23.32;74.29
53758;BME280;39674;59.860;30.672;2023-07-31T07:37:18;100246.69;;;23.06;75.05
53758;BME280;39674;59.860;30.672;2023-07-31T07:39:51;100236.97;;;22.88;72.85
53758;BME280;39674;59.860;30.672;2023-07-31T07:42:40;100319.06;;;23.26;72.56
53758;BME280;39674;59.860;30.672;2023-07-31T07:45:10;100313.00;;;23.07;73.41
53758;BME280;39674;59.860;30.672;2023-07-31T07:47:41;100259.88;;;22.68;74.95
53758;BME280;39674;59.860;30.672;2023-07-31T07:50:15;100263.25;;;22.70;74.51
53758;BME280;39674;59.860;30.672;2023-07-31T07:52:43;100315.53;;;23.17;74.78
53758;BME280;39674;59.860;30.672;2023-07-31T07:55:15;100304.91;;;22.99;74.19
53758;BME280;39674;59.860;30.672;2023-07-31T07:57:45;100309.97;;;23.02;74.38
53758;BME280;39674;59.860;30.672;2023-07-31T08:00:17;100285.94;;;22.84;74.00
53758;BME280;39674;59.860;30.672;2023-07-31T08:02:46;100237.50;;;22.59;74.01
53758;BME280;39674;59.860;30.672;2023-07-31T08:05:18;100316.69;;;23.06;75.64
53758;BME280;39674;59.860;30.672;2023-07-31T08:07:50;100288.44;;;22.94;75.52
53758;BME280;39674;59.860;30.672;2023-07-31T08:10:26;100330.00;;;23.24;75.66
53758;BME280;39674;59.860;30.672;2023-07-31T08:12:58;100321.75;;;23.26;73.77
53758;BME280;39674;59.860;30.672;2023-07-31T08:15:28;100290.75;;;23.13;75.47
53758;BME280;39674;59.860;30.672;2023-07-31T08:18:00;100228.91;;;22.72;73.13
53758;BME280;39674;59.860;30.672;2023-07-31T08:20:29;100321.06;;;23.32;75.30
53758;BME280;39674;59.860;30.672;2023-07-31T08:22:58;100321.91;;;23.32;73.75
53758;BME280;39674;59.860;30.672;2023-07-31T08:25:28;100331.31;;;23.45;74.77
53758;BME280;39674;59.860;30.672;2023-07-31T08:28:01;100310.94;;;23.42;72.35
53758;BME280;39674;59.860;30.672;2023-07-31T08:30:31;100327.75;;;23.44;70.14
53758;BME280;39674;59.860;30.672;2023-07-31T08:33:00;100315.16;;;23.36;71.18
53758;BME280;39674;59.860;30.672;2023-07-31T08:35:32;100286.41;;;23.20;70.85
53758;BME280;39674;59.860;30.672;2023-07-31T08:38:09;100248.84;;;23.11;72.57
53758;BME280;39674;59.860;30.672;2023-07-31T08:40:59;100286.63;;;23.50;71.63
53758;BME280;39674;59.860;30.672;2023-07-31T08:43:30;100320.19;;;23.87;70.41
53758;BME280;39674;59.860;30.672;2023-07-31T08:46:01;100312.59;;;23.91;67.05
53758;BME280;39674;59.860;30.672;2023-07-31T08:48:34;100311.69;;;24.07;70.49
53758;BME280;39674;59.860;30.672;2023-07-31T08:51:05;100316.22;;;24.38;71.62
53758;BME280;39674;59.860;30.672;2023-07-31T08:53:35;100287.59;;;24.29;69.11
53758;BME280;39674;59.860;30.672;2023-07-31T08:56:06;100294.50;;;24.31;67.33
53758;BME280;39674;59.860;30.672;2023-07-31T08:58:37;100279.50;;;24.29;65.76
53758;BME280;39674;59.860;30.672;2023-07-31T09:01:08;100291.97;;;24.30;63.59
53758;BME280;39674;59.860;30.672;2023-07-31T09:03:40;100331.31;;;24.47;62.79
53758;BME280;39674;59.860;30.672;2023-07-31T09:06:25;100328.97;;;24.76;65.61
53758;BME280;39674;59.860;30.672;2023-07-31T09:08:56;100235.41;;;24.60;67.83
53758;BME280;39674;59.860;30.672;2023-07-31T09:11:30;100287.16;;;25.40;64.03
53758;BME280;39674;59.860;30.672;2023-07-31T09:13:58;100328.97;;;25.89;64.56
53758;BME280;39674;59.860;30.672;2023-07-31T09:16:29;100306.72;;;25.57;59.74
53758;BME280;39674;59.860;30.672;2023-07-31T09:19:07;100320.13;;;25.35;60.40
53758;BME280;39674;59.860;30.672;2023-07-31T09:21:48;100291.69;;;25.09;61.14
53758;BME280;39674;59.860;30.672;2023-07-31T09:24:26;100295.38;;;24.93;60.24
53758;BME280;39674;59.860;30.672;2023-07-31T09:27:08;100325.75;;;24.95;60.88
53758;BME280;39674;59.860;30.672;2023-07-31T09:29:43;100324.63;;;24.90;63.90
53758;BME280;39674;59.860;30.672;2023-07-31T09:32:16;100328.34;;;24.89;62.09
53758;BME280;39674;59.860;30.672;2023-07-31T09:34:46;100301.84;;;24.69;62.55
53758;BME280;39674;59.860;30.672;2023-07-31T09:37:15;100250.50;;;24.31;64.36
53758;BME280;39674;59.860;30.672;2023-07-31T09:39:47;100321.41;;;24.71;62.28
53758;BME280;39674;59.860;30.672;2023-07-31T09:42:35;100315.16;;;24.71;62.42
53758;BME280;39674;59.860;30.672;2023-07-31T09:45:09;100324.09;;;24.71;63.70
53758;BME280;39674;59.860;30.672;2023-07-31T09:47:46;100246.53;;;24.18;62.29
53758;BME280;39674;59.860;30.672;2023-07-31T09:50:21;100270.03;;;24.33;64.35
53758;BME280;39674;59.860;30.672;2023-07-31T09:52:54;100296.56;;;24.52;62.53
53758;BME280;39674;59.860;30.672;2023-07-31T09:55:25;100234.88;;;24.18;60.98
53758;BME280;39674;59.860;30.672;2023-07-31T09:58:06;100236.41;;;24.21;63.13
53758;BME280;39674;59.860;30.672;2023-07-31T10:00:38;100264.75;;;24.40;59.23
53758;BME280;39674;59.860;30.672;2023-07-31T10:03:18;100313.53;;;24.85;62.50
53758;BME280;39674;59.860;30.672;2023-07-31T10:05:52;100277.00;;;24.74;57.77
53758;BME280;39674;59.860;30.672;2023-07-31T10:08:27;100285.81;;;25.06;58.24
53758;BME280;39674;59.860;30.672;2023-07-31T10:11:05;100274.53;;;25.32;59.62
53758;BME280;39674;59.860;30.672;2023-07-31T10:13:38;100308.03;;;25.61;57.06
53758;BME280;39674;59.860;30.672;2023-07-31T10:16:11;100316.31;;;25.74;56.57
53758;BME280;39674;59.860;30.672;2023-07-31T10:18:41;100265.03;;;25.36;56.17
53758;BME280;39674;59.860;30.672;2023-07-31T10:21:14;100309.59;;;25.70;56.16
53758;BME280;39674;59.860;30.672;2023-07-31T10:23:44;100302.47;;;25.84;53.83
53758;BME280;39674;59.860;30.672;2023-07-31T10:26:17;100262.38;;;25.88;53.57
53758;BME280;39674;59.860;30.672;2023-07-31T10:28:51;100284.06;;;26.31;56.11
53758;BME280;39674;59.860;30.672;2023-07-31T10:31:26;100231.25;;;26.14;51.06
53758;BME280;39674;59.860;30.672;2023-07-31T10:34:00;100281.38;;;26.53;48.83
53758;BME280;39674;59.860;30.672;2023-07-31T10:36:32;100301.63;;;26.79;54.36
53758;BME280;39674;59.860;30.672;2023-07-31T10:39:05;100268.31;;;26.85;53.69
53758;BME280;39674;59.860;30.672;2023-07-31T10:41:56;100220.81;;;26.89;51.71
53758;BME280;39674;59.860;30.672;2023-07-31T10:44:27;100296.50;;;27.54;54.23
53758;BME280;39674;59.860;30.672;2023-07-31T10:46:56;100293.47;;;27.77;52.73
53758;BME280;39674;59.860;30.672;2023-07-31T10:49:33;100296.88;;;27.99;51.28
53758;BME280;39674;59.860;30.672;2023-07-31T10:52:10;100289.28;;;27.75;44.94
53758;BME280;39674;59.860;30.672;2023-07-31T10:54:45;100270.06;;;27.63;45.92
53758;BME280;39674;59.860;30.672;2023-07-31T10:57:23;100243.97;;;27.68;47.99
53758;BME280;39674;59.860;30.672;2023-07-31T11:00:24;100278.78;;;28.20;46.77
53758;BME280;39674;59.860;30.672;2023-07-31T11:03:08;100205.78;;;27.63;45.88
53758;BME280;39674;59.860;30.672;2023-07-31T11:05:44;100280.16;;;27.89;45.94
53758;BME280;39674;59.860;30.672;2023-07-31T11:08:31;100261.78;;;27.84;44.86
53758;BME280;39674;59.860;30.672;2023-07-31T11:11:07;100281.13;;;28.43;47.55
53758;BME280;39674;59.860;30.672;2023-07-31T11:13:41;100220.13;;;28.46;45.37
53758;BME280;39674;59.860;30.672;2023-07-31T11:16:13;100246.03;;;28.95;45.39
53758;BME280;39674;59.860;30.672;2023-07-31T11:18:46;100237.47;;;28.72;41.50
53758;BME280;39674;59.860;30.672;2023-07-31T11:21:17;100266.50;;;28.58;40.07
53758;BME280;39674;59.860;30.672;2023-07-31T11:23:52;100193.41;;;28.16;40.42
53758;BME280;39674;59.860;30.672;2023-07-31T11:26:23;100271.31;;;29.03;43.31
53758;BME280;39674;59.860;30.672;2023-07-31T11:28:52;100271.13;;;28.84;39.67
53758;BME280;39674;59.860;30.672;2023-07-31T11:31:23;100234.13;;;28.36;39.66
53758;BME280;39674;59.860;30.672;2023-07-31T11:34:04;100243.34;;;28.69;44.07
53758;BME280;39674;59.860;30.672;2023-07-31T11:36:33;100238.50;;;28.84;42.81
53758;BME280;39674;59.860;30.672;2023-07-31T11:39:08;100222.41;;;28.96;39.84
53758;BME280;39674;59.860;30.672;2023-07-31T11:41:40;100232.19;;;29.04;39.93
53758;BME280;39674;59.860;30.672;2023-07-31T11:44:14;100231.38;;;29.10;39.62
53758;BME280;39674;59.860;30.672;2023-07-31T11:46:49;100181.06;;;28.67;40.61
53758;BME280;39674;59.860;30.672;2023-07-31T11:49:22;100260.22;;;28.97;37.05
53758;BME280;39674;59.860;30.672;2023-07-31T11:51:54;100249.59;;;28.69;41.02
53758;BME280;39674;59.860;30.672;2023-07-31T11:54:27;100238.94;;;28.41;38.69
53758;BME280;39674;59.860;30.672;2023-07-31T11:56:56;100263.56;;;28.06;37.56
53758;BME280;39674;59.860;30.672;2023-07-31T11:59:28;100258.00;;;27.79;41.37
53758;BME280;39674;59.860;30.672;2023-07-31T12:02:01;100248.75;;;27.53;40.05
53758;BME280;39674;59.860;30.672;2023-07-31T12:04:30;100232.31;;;27.26;42.24
53758;BME280;39674;59.860;30.672;2023-07-31T12:07:00;100248.66;;;27.39;44.78
53758;BME280;39674;59.860;30.672;2023-07-31T12:09:29;100218.97;;;27.31;43.64
53758;BME280;39674;59.860;30.672;2023-07-31T12:12:23;100226.53;;;27.36;44.24
53758;BME280;39674;59.860;30.672;2023-07-31T12:15:17;100252.72;;;27.22;44.85
53758;BME280;39674;59.860;30.672;2023-07-31T12:17:54;100215.09;;;27.05;46.40
53758;BME280;39674;59.860;30.672;2023-07-31T12:20:24;100249.03;;;27.36;44.21
53758;BME280;39674;59.860;30.672;2023-07-31T12:22:57;100207.19;;;27.11;41.08
53758;BME280;39674;59.860;30.672;2023-07-31T12:25:32;100248.97;;;27.23;41.30
53758;BME280;39674;59.860;30.672;2023-07-31T12:28:14;100214.44;;;27.03;42.96
53758;BME280;39674;59.860;30.672;2023-07-31T12:30:45;100206.25;;;26.90;43.62
53758;BME280;39674;59.860;30.672;2023-07-31T12:33:16;100192.25;;;26.58;44.73
53758;BME280;39674;59.860;30.672;2023-07-31T12:35:50;100219.34;;;26.58;43.77
53758;BME280;39674;59.860;30.672;2023-07-31T12:38:23;100203.38;;;26.41;48.61
53758;BME280;39674;59.860;30.672;2023-07-31T12:40:54;100227.34;;;26.73;47.95
53758;BME280;39674;59.860;30.672;2023-07-31T12:43:23;100217.75;;;26.70;46.61
53758;BME280;39674;59.860;30.672;2023-07-31T12:45:54;100214.66;;;26.73;45.73
53758;BME280;39674;59.860;30.672;2023-07-31T12:48:27;100171.78;;;26.49;46.29
53758;BME280;39674;59.860;30.672;2023-07-31T12:50:59;100214.53;;;26.82;47.14
53758;BME280;39674;59.860;30.672;2023-07-31T12:53:32;100192.34;;;26.71;47.89
53758;BME280;39674;59.860;30.672;2023-07-31T12:56:03;100214.00;;;26.71;44.24
53758;BME280;39674;59.860;30.672;2023-07-31T12:58:35;100141.03;;;26.06;43.56
53758;BME280;39674;59.860;30.672;2023-07-31T13:01:07;100223.13;;;26.35;47.78
53758;BME280;39674;59.860;30.672;2023-07-31T13:03:38;100169.75;;;25.86;47.33
53758;BME280;39674;59.860;30.672;2023-07-31T13:06:07;100180.28;;;25.59;47.90
53758;BME280;39674;59.860;30.672;2023-07-31T13:08:38;100231.44;;;25.75;51.00
53758;BME280;39674;59.860;30.672;2023-07-31T13:11:07;100195.31;;;25.46;48.57
53758;BME280;39674;59.860;30.672;2023-07-31T13:13:36;100179.09;;;25.46;52.82